createdAt,value
2022-07-29T00:01:51.472Z,20.43
2022-07-29T00:04:18.387Z,20.45
2022-07-29T00:06:45.238Z,20.46
2022-07-29T00:09:13.113Z,20.47
2022-07-29T00:11:39.611Z,20.43
2022-07-29T00:14:06.318Z,20.48
2022-07-29T00:16:32.901Z,20.48
2022-07-29T00:19:02.084Z,20.51
2022-07-29T00:21:29.068Z,20.53
2022-07-29T00:23:55.680Z,20.43
2022-07-29T00:26:23.998Z,20.45
2022-07-29T00:28:50.540Z,20.32
2022-07-29T00:31:17.213Z,20.36
2022-07-29T00:33:43.758Z,20.39
2022-07-29T00:36:10.277Z,20.30
2022-07-29T00:38:36.807Z,20.31
2022-07-29T00:41:03.345Z,20.35
2022-07-29T00:43:31.500Z,20.34
2022-07-29T00:45:58.023Z,20.27
2022-07-29T00:48:24.558Z,20.32
2022-07-29T00:50:51.369Z,20.22
2022-07-29T00:53:18.033Z,20.21
2022-07-29T00:55:44.589Z,20.08
2022-07-29T00:58:13.052Z,20.00
2022-07-29T01:00:41.012Z,19.93
2022-07-29T01:03:08.040Z,19.91
2022-07-29T01:05:50.682Z,19.85
2022-07-29T01:08:18.450Z,19.79
2022-07-29T01:10:46.569Z,19.85
2022-07-29T01:13:14.298Z,19.97
2022-07-29T01:15:49.125Z,20.05
2022-07-29T01:18:22.282Z,20.08
2022-07-29T01:21:21.326Z,20.03
2022-07-29T01:24:00.261Z,19.81
2022-07-29T01:26:38.881Z,19.75
2022-07-29T01:29:13.653Z,19.75
2022-07-29T01:31:59.301Z,19.72
2022-07-29T01:34:35.701Z,19.69
2022-07-29T01:37:08.771Z,19.61
2022-07-29T01:39:38.238Z,19.69
2022-07-29T01:42:13.570Z,19.58
2022-07-29T01:44:49.402Z,19.50
2022-07-29T01:47:21.398Z,19.45
2022-07-29T01:49:52.088Z,19.44
2022-07-29T01:52:22.768Z,19.35
2022-07-29T01:54:55.553Z,19.31
2022-07-29T01:57:28.860Z,19.41
2022-07-29T01:59:59.235Z,19.37
2022-07-29T02:02:29.207Z,19.33
2022-07-29T02:04:57.187Z,19.18
2022-07-29T02:07:28.578Z,19.08
2022-07-29T02:09:56.457Z,19.05
2022-07-29T02:12:25.086Z,18.92
2022-07-29T02:14:54.619Z,18.90
2022-07-29T02:17:27.047Z,18.95
2022-07-29T02:19:56.904Z,18.95
2022-07-29T02:22:25.038Z,18.94
2022-07-29T02:24:53.946Z,18.96
2022-07-29T02:27:21.526Z,18.98
2022-07-29T02:29:51.030Z,18.86
2022-07-29T02:32:18.822Z,18.68
2022-07-29T02:34:48.321Z,18.58
2022-07-29T02:37:17.599Z,18.55
2022-07-29T02:39:45.749Z,18.40
2022-07-29T02:42:16.439Z,18.51
2022-07-29T02:44:43.506Z,18.67
2022-07-29T02:47:17.354Z,18.79
2022-07-29T02:49:54.407Z,18.96
2022-07-29T02:52:25.134Z,19.04
2022-07-29T02:54:55.835Z,19.13
2022-07-29T02:57:29.668Z,19.22
2022-07-29T02:59:59.110Z,19.26
2022-07-29T03:02:27.903Z,19.28
2022-07-29T03:04:57.489Z,19.29
2022-07-29T03:07:25.468Z,19.30
2022-07-29T03:09:53.270Z,19.36
2022-07-29T03:12:20.515Z,19.31
2022-07-29T03:14:47.948Z,19.33
2022-07-29T03:19:49.450Z,19.40
2022-07-29T03:22:19.213Z,19.40
2022-07-29T03:24:45.992Z,19.41
2022-07-29T03:27:13.982Z,19.44
2022-07-29T03:29:40.490Z,19.41
2022-07-29T03:32:10.199Z,19.43
2022-07-29T03:34:38.019Z,19.40
2022-07-29T03:37:04.890Z,19.43
2022-07-29T03:39:36.178Z,19.45
2022-07-29T03:42:05.422Z,19.46
2022-07-29T03:44:33.535Z,19.46
2022-07-29T03:47:01.502Z,19.46
2022-07-29T03:49:29.151Z,19.53
2022-07-29T03:51:56.195Z,19.52
2022-07-29T03:54:23.618Z,19.55
2022-07-29T03:56:53.976Z,19.49
2022-07-29T03:59:21.975Z,19.50
2022-07-29T04:01:49.659Z,19.49
2022-07-29T04:04:16.793Z,19.47
2022-07-29T04:06:45.766Z,19.52
2022-07-29T04:09:14.876Z,19.54
2022-07-29T04:11:57.131Z,19.55
2022-07-29T04:14:30.932Z,19.60
2022-07-29T04:16:57.414Z,19.62
2022-07-29T04:19:23.931Z,19.57
2022-07-29T04:21:50.499Z,19.47
2022-07-29T04:24:17.755Z,19.33
2022-07-29T04:26:46.329Z,19.39
2022-07-29T04:29:12.839Z,19.36
2022-07-29T04:31:41.393Z,19.26
2022-07-29T04:34:08.383Z,19.27
2022-07-29T04:36:34.883Z,19.24
2022-07-29T04:39:01.440Z,19.21
2022-07-29T04:41:32.734Z,19.19
2022-07-29T04:44:00.285Z,19.22
2022-07-29T04:46:28.209Z,19.22
2022-07-29T04:48:56.189Z,19.20
2022-07-29T04:51:22.870Z,19.22
2022-07-29T04:53:49.369Z,19.24
2022-07-29T04:56:15.874Z,19.29
2022-07-29T04:58:42.415Z,19.14
2022-07-29T05:01:09.004Z,19.05
2022-07-29T05:03:35.563Z,19.10
2022-07-29T05:06:03.558Z,19.07
2022-07-29T05:08:30.151Z,19.09
2022-07-29T05:10:56.876Z,19.16
2022-07-29T05:13:23.365Z,19.13
2022-07-29T05:15:49.971Z,19.23
2022-07-29T05:18:16.631Z,19.27
2022-07-29T05:20:43.150Z,19.30
2022-07-29T05:23:11.359Z,19.35
2022-07-29T05:25:43.239Z,19.42
2022-07-29T05:28:10.561Z,19.28
2022-07-29T05:30:37.149Z,19.22
2022-07-29T05:33:03.678Z,19.19
2022-07-29T05:35:30.339Z,19.23
2022-07-29T05:37:56.921Z,19.15
2022-07-29T05:40:25.034Z,19.09
2022-07-29T05:42:51.524Z,19.13
2022-07-29T05:45:18.116Z,19.14
2022-07-29T05:47:44.666Z,19.16
2022-07-29T05:50:11.206Z,19.13
2022-07-29T05:52:37.747Z,18.97
2022-07-29T05:55:04.900Z,19.03
2022-07-29T05:57:33.104Z,19.02
2022-07-29T05:59:59.682Z,18.92
2022-07-29T06:02:26.232Z,18.99
2022-07-29T06:04:53.087Z,19.04
2022-07-29T06:07:19.622Z,19.07
2022-07-29T06:09:46.210Z,18.98
2022-07-29T06:12:12.803Z,18.86
2022-07-29T06:14:40.728Z,19.04
2022-07-29T06:17:07.261Z,19.12
2022-07-29T06:19:35.618Z,19.20
2022-07-29T06:22:02.127Z,19.25
2022-07-29T06:24:28.793Z,19.30
2022-07-29T06:26:55.369Z,19.43
2022-07-29T06:29:21.921Z,19.42
2022-07-29T06:31:49.852Z,19.38
2022-07-29T06:34:16.854Z,19.47
2022-07-29T06:36:44.319Z,19.61
2022-07-29T06:39:12.589Z,19.65
2022-07-29T06:41:39.131Z,19.70
2022-07-29T06:44:05.740Z,19.85
2022-07-29T06:46:32.841Z,20.01
2022-07-29T06:49:00.933Z,20.13
2022-07-29T06:51:27.534Z,20.29
2022-07-29T06:53:59.418Z,20.18
2022-07-29T06:56:30.312Z,20.32
2022-07-29T06:58:56.839Z,20.41
2022-07-29T07:01:23.471Z,20.34
2022-07-29T07:03:50.043Z,20.52
2022-07-29T07:06:17.946Z,20.55
2022-07-29T07:08:44.620Z,20.78
2022-07-29T07:11:11.259Z,20.84
2022-07-29T07:13:37.848Z,20.72
2022-07-29T07:16:05.407Z,20.81
2022-07-29T07:18:32.200Z,20.87
2022-07-29T07:20:59.281Z,20.84
2022-07-29T07:23:27.159Z,20.88
2022-07-29T07:25:53.795Z,20.85
2022-07-29T07:28:24.508Z,20.99
2022-07-29T07:30:51.746Z,21.16
2022-07-29T07:33:18.374Z,21.36
2022-07-29T07:35:44.972Z,21.69
2022-07-29T07:38:11.529Z,21.72
2022-07-29T07:40:39.564Z,22.11
2022-07-29T07:43:06.162Z,22.10
2022-07-29T07:45:33.155Z,22.34
2022-07-29T07:47:59.712Z,22.48
2022-07-29T07:50:27.723Z,22.35
2022-07-29T07:52:56.257Z,22.26
2022-07-29T07:55:22.794Z,22.51
2022-07-29T07:57:50.727Z,22.76
2022-07-29T08:00:18.146Z,22.73
2022-07-29T08:02:45.458Z,22.81
2022-07-29T08:05:13.140Z,22.96
2022-07-29T08:07:40.018Z,23.22
2022-07-29T08:10:08.326Z,23.86
2022-07-29T08:12:34.878Z,23.92
2022-07-29T08:15:03.134Z,23.79
2022-07-29T08:17:29.660Z,23.94
2022-07-29T08:19:56.214Z,24.26
2022-07-29T08:22:22.746Z,24.35
2022-07-29T08:24:49.336Z,24.89
2022-07-29T08:27:42.030Z,25.61
2022-07-29T08:30:04.559Z,25.46
2022-07-29T08:32:52.724Z,25.79
2022-07-29T08:35:17.677Z,25.09
2022-07-29T08:37:44.208Z,24.97
2022-07-29T08:40:11.817Z,25.30
2022-07-29T08:42:38.538Z,25.93
2022-07-29T08:45:08.102Z,25.59
2022-07-29T08:47:34.674Z,25.76
2022-07-29T08:50:01.249Z,26.00
2022-07-29T08:52:29.792Z,25.47
2022-07-29T08:54:56.522Z,25.24
2022-07-29T08:57:23.874Z,25.31
2022-07-29T08:59:53.336Z,25.41
2022-07-29T09:02:22.951Z,25.57
2022-07-29T09:04:50.021Z,25.83
2022-07-29T09:07:20.105Z,26.29
2022-07-29T09:09:47.315Z,26.82
2022-07-29T09:12:13.877Z,27.19
2022-07-29T09:14:55.598Z,27.13
2022-07-29T09:17:45.263Z,27.11
2022-07-29T09:20:14.153Z,26.92
2022-07-29T09:22:42.255Z,26.95
2022-07-29T09:25:09.523Z,27.32
2022-07-29T09:27:36.191Z,27.00
2022-07-29T09:30:05.726Z,26.93
2022-07-29T09:32:33.309Z,26.89
2022-07-29T09:35:18.169Z,26.51
2022-07-29T09:37:45.670Z,26.62
2022-07-29T09:40:14.315Z,26.82
2022-07-29T09:42:40.878Z,27.25
2022-07-29T09:45:08.184Z,26.88
2022-07-29T09:47:45.348Z,26.94
2022-07-29T09:50:12.105Z,26.74
2022-07-29T09:52:47.973Z,26.61
2022-07-29T09:55:18.143Z,26.76
2022-07-29T09:57:47.806Z,26.71
2022-07-29T10:00:17.726Z,26.46
2022-07-29T10:02:45.792Z,26.24
2022-07-29T10:05:21.055Z,26.35
2022-07-29T10:07:53.964Z,26.43
2022-07-29T10:10:25.819Z,26.79
2022-07-29T10:12:53.586Z,26.83
2022-07-29T10:15:22.679Z,26.84
2022-07-29T10:17:49.892Z,26.60
2022-07-29T10:20:16.810Z,26.69
2022-07-29T10:22:53.178Z,26.94
2022-07-29T10:25:22.447Z,27.04
2022-07-29T10:27:49.859Z,26.99
2022-07-29T10:30:17.244Z,26.88
2022-07-29T10:33:07.514Z,26.57
2022-07-29T10:36:06.037Z,26.96
2022-07-29T10:38:45.782Z,27.19
2022-07-29T10:41:44.315Z,27.08
2022-07-29T10:44:19.015Z,27.15
2022-07-29T10:46:46.821Z,27.29
2022-07-29T10:49:15.848Z,27.48
2022-07-29T10:52:03.626Z,27.75
2022-07-29T10:54:44.544Z,27.77
2022-07-29T10:57:19.002Z,27.86
2022-07-29T10:59:48.767Z,27.94
2022-07-29T11:02:43.805Z,27.82
2022-07-29T11:05:12.100Z,27.87
2022-07-29T11:07:45.528Z,27.71
2022-07-29T11:10:27.066Z,27.86
2022-07-29T11:12:59.473Z,27.97
2022-07-29T11:15:28.478Z,28.32
2022-07-29T11:18:08.250Z,28.50
2022-07-29T11:20:44.073Z,28.51
2022-07-29T11:23:25.861Z,28.35
2022-07-29T11:26:18.816Z,28.57
2022-07-29T11:28:58.415Z,28.55
2022-07-29T11:31:37.777Z,28.80
2022-07-29T11:34:28.022Z,28.42
2022-07-29T11:37:16.222Z,28.22
2022-07-29T11:39:45.289Z,27.96
2022-07-29T11:42:41.831Z,27.88
2022-07-29T11:45:43.798Z,28.02
2022-07-29T11:48:27.751Z,28.02
2022-07-29T11:50:48.373Z,28.11
2022-07-29T11:53:15.545Z,27.93
2022-07-29T11:55:50.591Z,27.95
2022-07-29T11:58:22.683Z,28.03
2022-07-29T12:00:55.630Z,28.21
2022-07-29T12:03:32.797Z,28.64
2022-07-29T12:06:00.318Z,28.48
2022-07-29T12:08:26.997Z,28.56
2022-07-29T12:10:53.581Z,28.53
2022-07-29T12:13:22.204Z,28.66
2022-07-29T12:16:00.000Z,29.09
2022-07-29T12:18:27.030Z,28.93
2022-07-29T12:20:58.795Z,29.16
2022-07-29T12:23:25.614Z,29.25
2022-07-29T12:25:56.307Z,29.22
2022-07-29T12:28:27.652Z,29.28
2022-07-29T12:30:55.650Z,29.41
2022-07-29T12:33:24.913Z,29.19
2022-07-29T12:36:03.810Z,29.33
2022-07-29T12:38:34.083Z,28.87
2022-07-29T12:41:00.682Z,29.07
2022-07-29T12:43:27.658Z,28.98
2022-07-29T12:45:57.120Z,28.95
2022-07-29T12:48:34.838Z,28.92
2022-07-29T12:51:02.666Z,28.38
2022-07-29T12:53:29.931Z,28.55
2022-07-29T12:55:58.045Z,28.37
2022-07-29T12:58:33.769Z,27.94
2022-07-29T13:01:04.640Z,27.70
2022-07-29T13:03:43.558Z,27.51
2022-07-29T13:06:36.527Z,27.52
2022-07-29T13:09:13.925Z,27.63
2022-07-29T13:11:46.518Z,27.69
2022-07-29T13:14:30.230Z,27.62
2022-07-29T13:17:06.548Z,27.79
2022-07-29T13:19:38.608Z,27.73
2022-07-29T13:22:05.358Z,27.66
2022-07-29T13:24:31.908Z,27.75
2022-07-29T13:26:58.527Z,27.66
2022-07-29T13:29:26.576Z,27.74
2022-07-29T13:31:57.099Z,27.99
2022-07-29T13:34:25.127Z,28.07
2022-07-29T13:36:51.661Z,27.99
2022-07-29T13:39:18.205Z,27.95
2022-07-29T13:41:44.729Z,28.07
2022-07-29T13:44:11.935Z,28.08
2022-07-29T13:46:39.982Z,27.81
2022-07-29T13:49:06.833Z,27.85
2022-07-29T13:51:34.753Z,27.86
2022-07-29T13:54:01.309Z,28.03
2022-07-29T13:56:29.207Z,28.09
2022-07-29T13:58:55.769Z,28.13
2022-07-29T14:01:22.686Z,28.04
2022-07-29T14:03:49.311Z,28.21
2022-07-29T14:06:15.938Z,28.44
2022-07-29T14:08:46.149Z,28.27
2022-07-29T14:11:12.698Z,28.39
2022-07-29T14:13:39.261Z,28.05
2022-07-29T14:16:06.570Z,27.82
2022-07-29T14:18:33.256Z,27.79
2022-07-29T14:21:00.010Z,27.68
2022-07-29T14:23:26.577Z,27.61
2022-07-29T14:25:54.468Z,27.75
2022-07-29T14:28:21.066Z,27.74
2022-07-29T14:30:47.954Z,28.10
2022-07-29T14:33:14.526Z,28.55
2022-07-29T14:35:41.100Z,28.32
2022-07-29T14:38:07.657Z,28.66
2022-07-29T14:40:34.698Z,28.48
2022-07-29T14:43:03.007Z,28.66
2022-07-29T14:45:30.090Z,28.69
2022-07-29T14:47:57.308Z,28.70
2022-07-29T14:50:31.781Z,28.56
2022-07-29T14:52:58.949Z,28.86
2022-07-29T14:55:25.720Z,28.69
2022-07-29T14:57:55.439Z,28.41
2022-07-29T15:00:26.654Z,28.20
2022-07-29T15:03:02.025Z,28.08
2022-07-29T15:05:29.506Z,28.18
2022-07-29T15:07:56.075Z,27.94
2022-07-29T15:10:22.685Z,27.82
2022-07-29T15:12:51.438Z,27.91
2022-07-29T15:15:18.108Z,27.97
2022-07-29T15:17:46.002Z,27.76
2022-07-29T15:20:12.633Z,27.45
2022-07-29T15:22:39.531Z,27.47
2022-07-29T15:25:07.031Z,27.58
2022-07-29T15:27:33.796Z,27.53
2022-07-29T15:30:00.360Z,27.58
2022-07-29T15:32:27.159Z,27.54
2022-07-29T15:34:55.093Z,27.61
2022-07-29T15:37:21.636Z,27.25
2022-07-29T15:39:48.174Z,27.12
2022-07-29T15:42:14.709Z,26.81
2022-07-29T15:44:44.433Z,26.63
2022-07-29T15:47:11.051Z,26.46
2022-07-29T15:49:47.525Z,26.21
2022-07-29T15:52:18.789Z,25.77
2022-07-29T15:54:45.679Z,25.85
2022-07-29T15:57:12.521Z,25.92
2022-07-29T15:59:39.139Z,26.02
2022-07-29T16:02:06.486Z,26.11
2022-07-29T16:04:33.098Z,26.16
2022-07-29T16:07:00.327Z,26.27
2022-07-29T16:09:28.500Z,26.36
2022-07-29T16:11:55.025Z,26.32
2022-07-29T16:14:21.712Z,26.40
2022-07-29T16:16:48.518Z,26.33
2022-07-29T16:19:16.354Z,26.39
2022-07-29T16:21:42.911Z,26.36
2022-07-29T16:24:09.637Z,26.36
2022-07-29T16:26:37.585Z,26.22
2022-07-29T16:29:04.755Z,26.19
2022-07-29T16:31:31.574Z,26.18
2022-07-29T16:33:58.172Z,25.97
2022-07-29T16:36:24.701Z,25.82
2022-07-29T16:38:51.354Z,25.70
2022-07-29T16:41:17.934Z,25.71
2022-07-29T16:43:45.887Z,25.61
2022-07-29T16:46:12.524Z,25.35
2022-07-29T16:48:45.438Z,25.35
2022-07-29T16:51:14.283Z,25.25
2022-07-29T16:53:41.241Z,25.11
2022-07-29T16:56:08.485Z,25.09
2022-07-29T16:58:43.449Z,25.10
2022-07-29T17:01:12.377Z,25.11
2022-07-29T17:03:39.115Z,25.05
2022-07-29T17:06:05.696Z,25.02
2022-07-29T17:08:32.217Z,24.84
2022-07-29T17:10:58.759Z,24.69
2022-07-29T17:13:25.299Z,24.61
2022-07-29T17:15:51.859Z,24.55
2022-07-29T17:18:19.798Z,24.35
2022-07-29T17:20:46.377Z,24.28
2022-07-29T17:23:12.944Z,24.27
2022-07-29T17:25:39.492Z,24.31
2022-07-29T17:28:06.066Z,24.23
2022-07-29T17:30:32.644Z,24.20
2022-07-29T17:32:59.177Z,24.12
2022-07-29T17:35:27.098Z,23.95
2022-07-29T17:37:53.744Z,23.94
2022-07-29T17:40:20.637Z,23.85
2022-07-29T17:42:47.192Z,23.94
2022-07-29T17:45:13.775Z,23.87
2022-07-29T17:47:40.291Z,23.91
2022-07-29T17:50:07.228Z,23.78
2022-07-29T17:52:35.637Z,23.75
2022-07-29T17:55:02.240Z,23.76
2022-07-29T17:57:28.796Z,23.73
2022-07-29T17:59:55.365Z,23.61
2022-07-29T18:02:21.969Z,23.48
2022-07-29T18:04:51.606Z,23.44
2022-07-29T18:07:18.178Z,23.31
2022-07-29T18:09:46.120Z,23.25
2022-07-29T18:12:12.683Z,23.18
2022-07-29T18:14:39.257Z,23.01
2022-07-29T18:17:05.838Z,22.84
2022-07-29T18:19:32.378Z,22.56
2022-07-29T18:22:04.031Z,22.61
2022-07-29T18:24:32.046Z,22.43
2022-07-29T18:27:00.238Z,22.34
2022-07-29T18:29:27.056Z,22.31
2022-07-29T18:31:53.579Z,22.24
2022-07-29T18:34:20.125Z,22.12
2022-07-29T18:36:47.149Z,21.96
2022-07-29T18:39:20.841Z,21.95
2022-07-29T18:41:50.125Z,21.97
2022-07-29T18:44:21.815Z,21.95
2022-07-29T18:46:49.307Z,21.75
2022-07-29T18:49:16.026Z,21.74
2022-07-29T18:51:42.918Z,21.63
2022-07-29T18:54:09.561Z,21.50
2022-07-29T18:56:36.628Z,21.39
2022-07-29T18:59:03.233Z,21.21
2022-07-29T19:01:31.592Z,21.42
2022-07-29T19:03:59.102Z,21.41
2022-07-29T19:06:26.171Z,21.44
2022-07-29T19:08:52.833Z,21.40
2022-07-29T19:11:19.389Z,21.30
2022-07-29T19:13:45.917Z,21.20
2022-07-29T19:16:12.554Z,21.18
2022-07-29T19:18:40.704Z,21.06
2022-07-29T19:21:07.410Z,21.08
2022-07-29T19:24:00.223Z,20.94
2022-07-29T19:26:20.930Z,20.87
2022-07-29T19:28:48.830Z,20.77
2022-07-29T19:31:16.208Z,20.71
2022-07-29T19:33:44.255Z,20.59
2022-07-29T19:36:10.927Z,20.57
2022-07-29T19:38:37.456Z,20.55
2022-07-29T19:41:04.022Z,20.56
2022-07-29T19:43:51.149Z,20.37
2022-07-29T19:46:17.166Z,20.35
2022-07-29T19:48:45.139Z,20.34
2022-07-29T19:51:11.850Z,20.36
2022-07-29T19:53:38.382Z,20.41
2022-07-29T19:56:05.533Z,20.42
2022-07-29T19:58:35.462Z,20.37
2022-07-29T20:01:02.762Z,20.21
2022-07-29T20:03:37.199Z,20.13
2022-07-29T20:06:05.427Z,20.12
2022-07-29T20:08:31.958Z,20.09
2022-07-29T20:10:58.529Z,20.03
2022-07-29T20:13:25.068Z,19.95
2022-07-29T20:15:51.664Z,19.76
2022-07-29T20:18:18.281Z,19.59
2022-07-29T20:20:44.818Z,19.50
2022-07-29T20:23:12.784Z,19.47
2022-07-29T20:25:39.303Z,19.49
2022-07-29T20:28:05.851Z,19.63
2022-07-29T20:30:32.394Z,19.70
2022-07-29T20:32:59.563Z,19.74
2022-07-29T20:35:26.288Z,19.68
2022-07-29T20:37:56.474Z,19.53
2022-07-29T20:40:25.088Z,19.48
2022-07-29T20:42:51.683Z,19.43
2022-07-29T20:45:18.201Z,19.33
2022-07-29T20:47:44.763Z,19.33
2022-07-29T20:50:11.590Z,19.22
2022-07-29T20:52:38.147Z,19.20
2022-07-29T20:55:05.726Z,19.07
2022-07-29T20:57:39.485Z,18.93
2022-07-29T21:00:07.768Z,19.00
2022-07-29T21:02:34.434Z,18.99
2022-07-29T21:05:01.061Z,18.96
2022-07-29T21:07:27.701Z,18.98
2022-07-29T21:09:54.229Z,18.99
2022-07-29T21:12:20.926Z,18.99
2022-07-29T21:14:48.828Z,19.00
2022-07-29T21:17:16.206Z,18.92
2022-07-29T21:19:42.888Z,18.61
2022-07-29T21:22:09.692Z,18.46
2022-07-29T21:24:36.476Z,18.53
2022-07-29T21:27:19.628Z,18.54
2022-07-29T21:29:49.154Z,18.49
2022-07-29T21:32:27.257Z,18.37
2022-07-29T21:34:56.766Z,18.29
2022-07-29T21:37:23.379Z,18.35
2022-07-29T21:39:49.976Z,18.37
2022-07-29T21:42:16.817Z,18.45
2022-07-29T21:44:43.366Z,18.44
2022-07-29T21:47:11.467Z,18.39
2022-07-29T21:49:38.415Z,18.41
2022-07-29T21:52:05.729Z,18.34
2022-07-29T21:54:34.586Z,18.39
2022-07-29T21:57:01.251Z,18.36
2022-07-29T21:59:27.794Z,18.32
2022-07-29T22:01:54.402Z,18.38
2022-07-29T22:04:22.357Z,18.40
2022-07-29T22:06:48.954Z,18.40
2022-07-29T22:09:15.480Z,18.41
2022-07-29T22:11:42.057Z,18.39
2022-07-29T22:14:08.591Z,18.39
2022-07-29T22:16:35.292Z,18.32
2022-07-29T22:19:01.954Z,18.24
2022-07-29T22:21:29.845Z,18.21
2022-07-29T22:23:56.393Z,18.16
2022-07-29T22:26:22.962Z,18.13
2022-07-29T22:28:50.142Z,18.09
2022-07-29T22:31:16.736Z,18.19
2022-07-29T22:33:43.350Z,18.16
2022-07-29T22:36:09.922Z,18.11
2022-07-29T22:38:37.812Z,18.06
2022-07-29T22:41:04.366Z,17.98
2022-07-29T22:43:30.901Z,17.87
2022-07-29T22:45:57.476Z,17.90
2022-07-29T22:48:24.093Z,17.87
2022-07-29T22:50:51.005Z,17.83
2022-07-29T22:53:17.572Z,17.81
2022-07-29T22:55:46.541Z,17.92
2022-07-29T22:58:13.098Z,17.78
2022-07-29T23:00:39.645Z,17.67
2022-07-29T23:03:06.184Z,17.74
2022-07-29T23:05:32.819Z,17.69
2022-07-29T23:07:59.395Z,17.60
2022-07-29T23:10:26.085Z,17.68
2022-07-29T23:12:54.016Z,17.68
2022-07-29T23:15:20.732Z,17.65
2022-07-29T23:17:47.275Z,17.64
2022-07-29T23:20:14.788Z,17.52
2022-07-29T23:22:41.795Z,17.46
2022-07-29T23:25:08.754Z,17.53
2022-07-29T23:27:35.497Z,17.53
2022-07-29T23:30:04.321Z,17.49
2022-07-29T23:32:30.873Z,17.48
2022-07-29T23:34:57.412Z,17.56
2022-07-29T23:37:24.078Z,17.66
2022-07-29T23:39:53.397Z,17.74
2022-07-29T23:42:19.965Z,17.77
2022-07-29T23:44:46.494Z,17.46
2022-07-29T23:47:14.406Z,17.38
2022-07-29T23:49:40.967Z,17.17
2022-07-29T23:52:07.598Z,17.21
2022-07-29T23:54:34.158Z,17.25
2022-07-29T23:57:01.009Z,17.27
2022-07-29T23:59:27.745Z,17.27
